createdAt,value
2023-02-08T00:01:25.226Z,16.90
2023-02-08T00:03:52.025Z,15.10
2023-02-08T00:06:18.355Z,19.63
2023-02-08T00:08:45.077Z,18.63
2023-02-08T00:11:12.151Z,20.03
2023-02-08T00:13:41.642Z,17.93
2023-02-08T00:16:08.498Z,19.93
2023-02-08T00:18:34.971Z,21.33
2023-02-08T00:21:01.492Z,17.93
2023-02-08T00:23:27.878Z,15.70
2023-02-08T00:25:54.162Z,18.10
2023-02-08T00:28:20.789Z,18.27
2023-02-08T00:30:47.249Z,18.37
2023-02-08T00:33:13.917Z,16.73
2023-02-08T00:35:42.221Z,18.33
2023-02-08T00:38:08.576Z,18.00
2023-02-08T00:40:34.994Z,18.57
2023-02-08T00:43:02.789Z,18.43
2023-02-08T00:45:29.295Z,16.27
2023-02-08T00:47:55.710Z,17.50
2023-02-08T00:50:22.137Z,19.70
2023-02-08T00:52:48.621Z,16.77
2023-02-08T00:55:15.045Z,17.17
2023-02-08T00:57:41.364Z,20.70
2023-02-08T01:00:09.110Z,16.77
2023-02-08T01:02:35.410Z,19.67
2023-02-08T01:05:01.728Z,16.03
2023-02-08T01:07:28.228Z,15.37
2023-02-08T01:09:54.619Z,16.67
2023-02-08T01:12:20.902Z,18.33
2023-02-08T01:14:47.252Z,17.60
2023-02-08T01:17:13.557Z,18.57
2023-02-08T01:19:42.530Z,13.70
2023-02-08T01:22:09.000Z,15.63
2023-02-08T01:24:35.328Z,14.93
2023-02-08T01:27:01.620Z,20.30
2023-02-08T01:29:28.058Z,14.93
2023-02-08T01:31:54.377Z,22.17
2023-02-08T01:34:20.781Z,15.27
2023-02-08T01:36:47.112Z,17.20
2023-02-08T01:39:13.555Z,15.43
2023-02-08T01:41:43.508Z,15.57
2023-02-08T01:44:12.602Z,18.87
2023-02-08T01:46:41.420Z,14.70
2023-02-08T01:49:23.064Z,15.40
2023-02-08T01:51:55.701Z,18.13
2023-02-08T01:54:23.904Z,18.40
2023-02-08T01:56:50.899Z,19.40
2023-02-08T01:59:19.874Z,17.90
2023-02-08T02:01:46.849Z,15.83
2023-02-08T02:04:13.287Z,19.40
2023-02-08T02:06:41.515Z,19.97
2023-02-08T02:09:16.612Z,17.57
2023-02-08T02:11:43.385Z,20.50
2023-02-08T02:14:10.129Z,24.43
2023-02-08T02:16:36.691Z,17.93
2023-02-08T02:19:05.220Z,16.27
2023-02-08T02:21:31.625Z,17.00
2023-02-08T02:24:24.273Z,19.50
2023-02-08T02:26:58.499Z,19.30
2023-02-08T02:29:43.594Z,15.73
2023-02-08T02:32:19.895Z,19.10
2023-02-08T02:34:52.207Z,18.73
2023-02-08T02:37:18.496Z,17.57
2023-02-08T02:39:45.831Z,20.27
2023-02-08T02:42:34.312Z,18.10
2023-02-08T02:45:03.529Z,18.03
2023-02-08T02:47:42.187Z,18.40
2023-02-08T02:50:14.706Z,18.20
2023-02-08T02:52:51.519Z,23.23
2023-02-08T02:55:20.995Z,18.07
2023-02-08T02:57:49.829Z,17.13
2023-02-08T03:00:21.468Z,16.10
2023-02-08T03:02:47.768Z,17.60
2023-02-08T03:05:14.101Z,20.53
2023-02-08T03:07:40.365Z,18.63
2023-02-08T03:10:15.954Z,18.63
2023-02-08T03:13:08.553Z,20.20
2023-02-08T03:15:34.901Z,19.43
2023-02-08T03:18:21.069Z,18.80
2023-02-08T03:20:47.335Z,19.10
2023-02-08T03:23:13.607Z,18.90
2023-02-08T03:25:46.910Z,17.30
2023-02-08T03:28:24.021Z,21.63
2023-02-08T03:31:03.480Z,23.67
2023-02-08T03:33:33.792Z,22.53
2023-02-08T03:36:04.540Z,16.27
2023-02-08T03:38:36.473Z,15.70
2023-02-08T03:41:04.375Z,21.10
2023-02-08T03:43:37.068Z,19.37
2023-02-08T03:46:16.351Z,18.17
2023-02-08T03:48:45.270Z,16.93
2023-02-08T03:51:12.161Z,18.00
2023-02-08T03:53:40.488Z,15.50
2023-02-08T03:56:09.972Z,15.97
2023-02-08T03:58:40.733Z,19.43
2023-02-08T04:01:11.688Z,16.40
2023-02-08T04:03:38.501Z,17.33
2023-02-08T04:06:05.079Z,15.50
2023-02-08T04:08:31.424Z,18.70
2023-02-08T04:10:57.981Z,15.93
2023-02-08T04:13:24.254Z,15.23
2023-02-08T04:15:50.571Z,17.83
2023-02-08T04:18:16.885Z,17.90
2023-02-08T04:20:43.220Z,17.53
2023-02-08T04:23:09.547Z,20.53
2023-02-08T04:25:35.928Z,18.07
2023-02-08T04:28:02.282Z,16.93
2023-02-08T04:30:28.609Z,21.30
2023-02-08T04:32:55.013Z,17.83
2023-02-08T04:35:21.336Z,17.33
2023-02-08T04:37:47.748Z,18.50
2023-02-08T04:40:14.067Z,20.20
2023-02-08T04:42:40.450Z,18.63
2023-02-08T04:45:06.975Z,18.43
2023-02-08T04:47:33.293Z,19.00
2023-02-08T04:49:59.698Z,19.73
2023-02-08T04:52:28.753Z,18.37
2023-02-08T04:54:55.069Z,16.33
2023-02-08T04:57:21.440Z,21.30
2023-02-08T04:59:47.868Z,17.43
2023-02-08T05:02:14.275Z,22.70
2023-02-08T05:04:40.573Z,20.37
2023-02-08T05:07:06.953Z,19.63
2023-02-08T05:09:33.267Z,19.50
2023-02-08T05:11:59.569Z,17.33
2023-02-08T05:14:26.357Z,17.87
2023-02-08T05:16:52.779Z,17.33
2023-02-08T05:19:19.091Z,18.93
2023-02-08T05:21:45.446Z,15.97
2023-02-08T05:24:12.435Z,19.17
2023-02-08T05:26:39.641Z,19.13
2023-02-08T05:29:06.102Z,20.50
2023-02-08T05:31:32.453Z,16.03
2023-02-08T05:33:59.025Z,19.10
2023-02-08T05:36:25.352Z,17.03
2023-02-08T05:38:53.464Z,18.33
2023-02-08T05:41:19.800Z,18.23
2023-02-08T05:43:46.229Z,16.53
2023-02-08T05:46:12.812Z,17.80
2023-02-08T05:48:39.294Z,15.47
2023-02-08T05:51:05.613Z,21.07
2023-02-08T05:53:32.090Z,19.13
2023-02-08T05:55:58.556Z,20.40
2023-02-08T05:58:25.240Z,17.03
2023-02-08T06:00:51.672Z,20.87
2023-02-08T06:03:18.116Z,17.00
2023-02-08T06:05:44.825Z,15.60
2023-02-08T06:08:11.312Z,18.63
2023-02-08T06:10:37.705Z,18.10
2023-02-08T06:13:04.518Z,17.73
2023-02-08T06:15:31.304Z,16.80
2023-02-08T06:17:57.619Z,16.77
2023-02-08T06:20:24.020Z,18.93
2023-02-08T06:22:50.348Z,15.40
2023-02-08T06:25:16.835Z,19.20
2023-02-08T06:27:43.150Z,16.07
2023-02-08T06:30:09.845Z,15.67
2023-02-08T06:32:36.214Z,17.70
2023-02-08T06:35:02.912Z,13.80
2023-02-08T06:37:29.242Z,16.70
2023-02-08T06:39:55.556Z,14.53
2023-02-08T06:42:21.912Z,18.20
2023-02-08T06:44:55.173Z,17.97
2023-02-08T06:47:22.388Z,15.60
2023-02-08T06:49:48.668Z,15.57
2023-02-08T06:52:14.969Z,18.93
2023-02-08T06:54:41.288Z,14.40
2023-02-08T06:57:08.373Z,17.63
2023-02-08T06:59:34.865Z,16.90
2023-02-08T07:02:01.498Z,18.03
2023-02-08T07:04:27.989Z,13.30
2023-02-08T07:06:54.409Z,15.73
2023-02-08T07:09:21.783Z,13.27
2023-02-08T07:11:48.227Z,16.77
2023-02-08T07:14:15.610Z,16.83
2023-02-08T07:16:42.035Z,14.60
2023-02-08T07:19:08.426Z,15.60
2023-02-08T07:21:35.775Z,16.60
2023-02-08T07:24:02.091Z,13.13
2023-02-08T07:26:30.463Z,22.73
2023-02-08T07:28:57.888Z,15.50
2023-02-08T07:31:24.314Z,14.90
2023-02-08T07:33:50.876Z,16.63
2023-02-08T07:36:17.271Z,17.90
2023-02-08T07:38:43.604Z,17.83
2023-02-08T07:41:11.992Z,15.23
2023-02-08T07:43:40.186Z,19.23
2023-02-08T07:46:10.694Z,17.10
2023-02-08T07:48:39.810Z,14.40
2023-02-08T07:51:06.496Z,12.73
2023-02-08T07:53:33.901Z,15.07
2023-02-08T07:56:01.387Z,15.23
2023-02-08T07:58:28.015Z,15.33
2023-02-08T08:00:57.258Z,17.83
2023-02-08T08:03:24.650Z,21.90
2023-02-08T08:05:53.531Z,15.77
2023-02-08T08:08:21.034Z,16.13
2023-02-08T08:10:47.391Z,16.00
2023-02-08T08:13:13.884Z,19.93
2023-02-08T08:15:40.695Z,15.37
2023-02-08T08:18:07.657Z,17.63
2023-02-08T08:20:34.074Z,17.60
2023-02-08T08:23:00.527Z,16.00
2023-02-08T08:25:27.030Z,16.47
2023-02-08T08:27:53.643Z,18.27
2023-02-08T08:30:20.789Z,18.33
2023-02-08T08:32:47.231Z,18.70
2023-02-08T08:35:13.691Z,13.70
2023-02-08T08:37:40.265Z,14.93
2023-02-08T08:40:07.740Z,15.13
2023-02-08T08:42:36.220Z,16.47
2023-02-08T08:45:03.164Z,17.93
2023-02-08T08:47:29.756Z,17.00
2023-02-08T08:49:56.082Z,19.63
2023-02-08T08:52:22.609Z,21.37
2023-02-08T08:54:48.933Z,16.77
2023-02-08T08:57:15.598Z,18.10
2023-02-08T08:59:41.878Z,19.43
2023-02-08T09:02:10.287Z,16.33
2023-02-08T09:04:36.582Z,16.77
2023-02-08T09:07:02.997Z,16.47
2023-02-08T09:09:29.325Z,20.80
2023-02-08T09:11:55.612Z,20.13
2023-02-08T09:14:21.982Z,21.07
2023-02-08T09:16:49.155Z,20.80
2023-02-08T09:19:16.258Z,16.07
2023-02-08T09:21:43.206Z,19.80
2023-02-08T09:24:09.887Z,15.57
2023-02-08T09:26:36.438Z,17.20
2023-02-08T09:29:03.071Z,18.13
2023-02-08T09:31:31.050Z,15.87
2023-02-08T09:33:59.394Z,15.93
2023-02-08T09:36:26.884Z,15.33
2023-02-08T09:39:01.634Z,18.40
2023-02-08T09:41:53.997Z,22.63
2023-02-08T09:44:39.181Z,19.43
2023-02-08T09:47:20.756Z,19.10
2023-02-08T09:50:03.388Z,16.27
2023-02-08T09:52:35.162Z,18.63
2023-02-08T09:55:03.961Z,17.07
2023-02-08T09:57:33.164Z,17.23
2023-02-08T10:00:04.421Z,18.83
2023-02-08T10:02:34.219Z,16.60
2023-02-08T10:05:03.030Z,18.23
2023-02-08T10:07:30.180Z,18.90
2023-02-08T10:09:57.655Z,12.87
2023-02-08T10:12:29.926Z,22.13
2023-02-08T10:14:56.272Z,21.73
2023-02-08T10:17:44.901Z,14.80
2023-02-08T10:20:30.850Z,17.13
2023-02-08T10:23:01.389Z,14.80
2023-02-08T10:25:47.148Z,19.50
2023-02-08T10:28:19.869Z,15.80
2023-02-08T10:30:56.090Z,18.73
2023-02-08T10:33:40.857Z,15.70
2023-02-08T10:36:14.650Z,18.27
2023-02-08T10:38:46.714Z,22.10
2023-02-08T10:41:33.611Z,20.97
2023-02-08T10:44:20.741Z,16.10
2023-02-08T10:46:57.342Z,15.33
2023-02-08T10:49:44.834Z,16.67
2023-02-08T10:52:11.223Z,16.37
2023-02-08T10:54:37.594Z,17.23
2023-02-08T10:57:05.658Z,15.13
2023-02-08T10:59:35.598Z,15.80
2023-02-08T11:02:01.883Z,13.73
2023-02-08T11:04:28.323Z,13.13
2023-02-08T11:06:54.931Z,18.73
2023-02-08T11:09:22.730Z,15.73
2023-02-08T11:11:52.456Z,18.53
2023-02-08T11:14:46.206Z,16.47
2023-02-08T11:17:28.291Z,15.27
2023-02-08T11:19:55.090Z,15.87
2023-02-08T11:22:23.035Z,15.93
2023-02-08T11:25:00.425Z,16.00
2023-02-08T11:27:26.777Z,13.40
2023-02-08T11:30:13.042Z,15.13
2023-02-08T11:32:39.702Z,13.90
2023-02-08T11:35:26.349Z,11.83
2023-02-08T11:37:54.006Z,13.73
2023-02-08T11:40:32.220Z,14.40
2023-02-08T11:42:58.708Z,13.03
2023-02-08T11:45:27.684Z,16.10
2023-02-08T11:47:54.201Z,11.97
2023-02-08T11:50:40.882Z,11.73
2023-02-08T11:53:16.728Z,12.53
2023-02-08T11:55:44.521Z,15.47
2023-02-08T11:58:20.180Z,13.97
2023-02-08T12:01:01.838Z,14.57
2023-02-08T12:03:31.166Z,15.43
2023-02-08T12:06:15.939Z,15.47
2023-02-08T12:08:42.408Z,13.83
2023-02-08T12:11:08.804Z,11.80
2023-02-08T12:13:45.278Z,11.90
2023-02-08T12:16:17.096Z,15.00
2023-02-08T12:19:02.162Z,12.67
2023-02-08T12:21:40.788Z,14.33
2023-02-08T12:24:07.078Z,14.57
2023-02-08T12:26:37.380Z,12.83
2023-02-08T12:29:09.689Z,13.33
2023-02-08T12:31:51.096Z,13.50
2023-02-08T12:34:36.073Z,13.80
2023-02-08T12:37:36.491Z,13.23
2023-02-08T12:40:41.240Z,11.63
2023-02-08T12:43:08.759Z,12.43
2023-02-08T12:45:38.160Z,15.00
2023-02-08T12:48:05.145Z,11.10
2023-02-08T12:50:43.268Z,13.20
2023-02-08T12:53:19.400Z,12.53
2023-02-08T12:55:46.837Z,12.87
2023-02-08T12:58:26.556Z,11.57
2023-02-08T13:00:54.543Z,13.40
2023-02-08T13:03:23.707Z,12.60
2023-02-08T13:06:01.567Z,11.23
2023-02-08T13:08:28.978Z,14.37
2023-02-08T13:11:05.520Z,11.97
2023-02-08T13:13:39.282Z,12.03
2023-02-08T13:16:20.274Z,12.60
2023-02-08T13:19:06.556Z,14.40
2023-02-08T13:21:37.893Z,12.77
2023-02-08T13:24:06.649Z,10.93
2023-02-08T13:26:34.010Z,13.10
2023-02-08T13:29:02.472Z,13.80
2023-02-08T13:31:29.119Z,13.00
2023-02-08T13:34:08.028Z,16.03
2023-02-08T13:36:39.707Z,12.50
2023-02-08T13:39:08.615Z,12.00
2023-02-08T13:41:35.743Z,11.03
2023-02-08T13:44:06.763Z,14.50
2023-02-08T13:46:46.953Z,12.60
2023-02-08T13:49:32.271Z,13.60
2023-02-08T13:51:58.710Z,12.60
2023-02-08T13:54:25.263Z,11.27
2023-02-08T13:56:52.558Z,12.47
2023-02-08T13:59:41.330Z,11.97
2023-02-08T14:02:18.906Z,14.70
2023-02-08T14:04:46.616Z,13.10
2023-02-08T14:07:33.696Z,13.93
2023-02-08T14:10:04.638Z,9.93
2023-02-08T14:12:43.792Z,13.03
2023-02-08T14:15:12.882Z,10.77
2023-02-08T14:17:42.420Z,11.87
2023-02-08T14:20:17.559Z,13.87
2023-02-08T14:22:49.134Z,12.77
2023-02-08T14:25:21.090Z,13.67
2023-02-08T14:27:52.695Z,11.60
2023-02-08T14:30:18.981Z,9.87
2023-02-08T14:32:47.765Z,12.07
2023-02-08T14:35:26.474Z,12.43
2023-02-08T14:38:11.850Z,11.13
2023-02-08T14:40:47.829Z,11.47
2023-02-08T14:43:20.221Z,9.47
2023-02-08T14:45:47.742Z,11.87
2023-02-08T14:48:37.622Z,11.03
2023-02-08T14:51:04.012Z,9.27
2023-02-08T14:53:36.313Z,12.13
2023-02-08T14:56:07.142Z,10.97
2023-02-08T14:58:45.224Z,11.00
2023-02-08T15:01:18.683Z,14.57
2023-02-08T15:03:46.579Z,12.87
2023-02-08T15:06:31.780Z,10.47
2023-02-08T15:08:58.403Z,11.93
2023-02-08T15:11:26.816Z,15.40
2023-02-08T15:13:54.733Z,10.33
2023-02-08T15:16:21.284Z,10.07
2023-02-08T15:18:48.523Z,11.23
2023-02-08T15:21:19.399Z,10.87
2023-02-08T15:24:22.469Z,11.37
2023-02-08T15:26:52.978Z,16.33
2023-02-08T15:29:30.055Z,10.63
2023-02-08T15:32:02.213Z,9.77
2023-02-08T15:34:32.834Z,10.30
2023-02-08T15:36:59.841Z,8.13
2023-02-08T15:39:39.511Z,11.70
2023-02-08T15:42:06.325Z,11.50
2023-02-08T15:44:33.679Z,11.63
2023-02-08T15:47:02.002Z,11.33
2023-02-08T15:49:28.374Z,12.47
2023-02-08T15:51:56.999Z,10.60
2023-02-08T15:54:23.860Z,9.53
2023-02-08T15:56:57.537Z,9.03
2023-02-08T15:59:25.743Z,9.57
2023-02-08T16:01:53.168Z,10.90
2023-02-08T16:04:19.913Z,11.03
2023-02-08T16:06:50.112Z,12.90
2023-02-08T16:09:18.284Z,9.70
2023-02-08T16:11:46.459Z,12.03
2023-02-08T16:14:17.449Z,12.13
2023-02-08T16:16:45.619Z,10.83
2023-02-08T16:19:18.240Z,12.40
2023-02-08T16:21:44.693Z,9.57
2023-02-08T16:24:10.973Z,10.73
2023-02-08T16:26:41.757Z,11.57
2023-02-08T16:29:17.528Z,12.57
2023-02-08T16:31:45.661Z,10.63
2023-02-08T16:34:16.396Z,15.07
2023-02-08T16:36:44.422Z,11.60
2023-02-08T16:39:13.458Z,11.33
2023-02-08T16:42:09.590Z,12.40
2023-02-08T16:44:56.624Z,12.90
2023-02-08T16:47:28.105Z,11.77
2023-02-08T16:49:54.413Z,12.53
2023-02-08T16:52:20.703Z,12.57
2023-02-08T16:54:47.079Z,11.40
2023-02-08T16:57:13.404Z,13.37
2023-02-08T16:59:39.892Z,12.93
2023-02-08T17:02:10.470Z,12.03
2023-02-08T17:04:36.867Z,11.00
2023-02-08T17:07:03.223Z,12.23
2023-02-08T17:09:29.503Z,13.07
2023-02-08T17:11:55.785Z,14.50
2023-02-08T17:14:22.090Z,14.23
2023-02-08T17:16:48.434Z,11.57
2023-02-08T17:19:16.798Z,10.97
2023-02-08T17:21:43.324Z,13.50
2023-02-08T17:24:10.716Z,11.30
2023-02-08T17:26:38.972Z,13.17
2023-02-08T17:29:05.324Z,12.80
2023-02-08T17:31:32.343Z,13.30
2023-02-08T17:34:04.265Z,14.53
2023-02-08T17:36:31.765Z,15.17
2023-02-08T17:38:58.419Z,15.73
2023-02-08T17:41:24.734Z,13.67
2023-02-08T17:43:52.158Z,11.37
2023-02-08T17:46:20.252Z,13.17
2023-02-08T17:48:48.456Z,15.03
2023-02-08T17:51:19.602Z,14.93
2023-02-08T17:53:46.393Z,12.60
2023-02-08T17:56:14.086Z,12.70
2023-02-08T17:58:40.774Z,13.03
2023-02-08T18:01:08.635Z,11.50
2023-02-08T18:03:35.171Z,11.13
2023-02-08T18:06:01.986Z,11.47
2023-02-08T18:08:28.470Z,13.70
2023-02-08T18:10:55.840Z,12.50
2023-02-08T18:13:22.160Z,11.77
2023-02-08T18:15:48.758Z,13.83
2023-02-08T18:18:15.597Z,11.53
2023-02-08T18:20:45.197Z,14.80
2023-02-08T18:23:11.555Z,14.23
2023-02-08T18:25:37.989Z,11.80
2023-02-08T18:28:04.348Z,17.83
2023-02-08T18:30:31.104Z,13.37
2023-02-08T18:32:57.389Z,15.80
2023-02-08T18:35:23.750Z,16.97
2023-02-08T18:37:50.195Z,12.97
2023-02-08T18:40:17.308Z,17.67
2023-02-08T18:42:43.638Z,14.57
2023-02-08T18:45:10.070Z,15.13
2023-02-08T18:47:37.093Z,18.93
2023-02-08T18:50:03.722Z,13.37
2023-02-08T18:52:31.538Z,12.47
2023-02-08T18:54:58.126Z,14.13
2023-02-08T18:57:24.672Z,14.67
2023-02-08T18:59:52.913Z,14.47
2023-02-08T19:02:20.918Z,16.47
2023-02-08T19:04:47.473Z,14.80
2023-02-08T19:07:14.294Z,18.17
2023-02-08T19:09:40.985Z,17.37
2023-02-08T19:12:07.592Z,17.20
2023-02-08T19:14:34.430Z,12.40
2023-02-08T19:17:00.940Z,22.20
2023-02-08T19:19:27.308Z,20.23
2023-02-08T19:21:53.721Z,17.87
2023-02-08T19:24:20.137Z,17.97
2023-02-08T19:26:46.726Z,18.70
2023-02-08T19:29:14.816Z,23.47
2023-02-08T19:31:41.689Z,19.47
2023-02-08T19:34:08.462Z,20.43
2023-02-08T19:36:37.654Z,19.93
2023-02-08T19:39:05.142Z,18.63
2023-02-08T19:41:33.289Z,17.70
2023-02-08T19:44:00.121Z,21.33
2023-02-08T19:46:27.942Z,16.53
2023-02-08T19:48:55.585Z,18.23
2023-02-08T19:51:23.039Z,24.20
2023-02-08T19:53:49.361Z,20.03
2023-02-08T19:56:16.787Z,17.47
2023-02-08T19:58:43.603Z,14.80
2023-02-08T20:01:11.590Z,15.87
2023-02-08T20:03:38.338Z,17.20
2023-02-08T20:06:05.177Z,17.90
2023-02-08T20:08:31.772Z,18.47
2023-02-08T20:10:58.116Z,17.07
2023-02-08T20:13:24.457Z,20.40
2023-02-08T20:15:50.769Z,18.80
2023-02-08T20:18:17.240Z,19.80
2023-02-08T20:20:43.693Z,21.07
2023-02-08T20:23:21.999Z,17.97
2023-02-08T20:25:48.969Z,22.37
2023-02-08T20:28:15.289Z,18.90
2023-02-08T20:30:42.013Z,16.90
2023-02-08T20:33:08.380Z,18.93
2023-02-08T20:35:35.903Z,21.93
2023-02-08T20:38:02.261Z,20.47
2023-02-08T20:40:28.546Z,22.80
2023-02-08T20:42:54.931Z,22.10
2023-02-08T20:45:21.207Z,21.07
2023-02-08T20:47:47.910Z,23.57
2023-02-08T20:50:19.267Z,23.77
2023-02-08T20:52:48.990Z,28.87
2023-02-08T20:55:15.365Z,23.73
2023-02-08T20:57:41.757Z,24.20
2023-02-08T21:00:08.464Z,23.33
2023-02-08T21:02:35.852Z,19.10
2023-02-08T21:05:02.317Z,21.10
2023-02-08T21:07:28.613Z,17.67
2023-02-08T21:09:54.918Z,22.30
2023-02-08T21:12:21.498Z,17.90
2023-02-08T21:14:47.899Z,21.30
2023-02-08T21:17:14.314Z,20.83
2023-02-08T21:19:40.672Z,16.40
2023-02-08T21:22:07.021Z,18.73
2023-02-08T21:24:33.489Z,17.17
2023-02-08T21:26:59.943Z,19.93
2023-02-08T21:29:26.315Z,18.27
2023-02-08T21:31:54.303Z,19.00
2023-02-08T21:34:21.137Z,16.77
2023-02-08T21:36:47.656Z,20.43
2023-02-08T21:39:13.967Z,20.47
2023-02-08T21:41:40.277Z,23.10
2023-02-08T21:44:08.194Z,17.80
2023-02-08T21:46:35.033Z,20.00
2023-02-08T21:49:19.784Z,20.43
2023-02-08T21:52:05.413Z,19.30
2023-02-08T21:54:41.928Z,18.93
2023-02-08T21:57:21.799Z,17.77
2023-02-08T21:59:49.146Z,19.17
2023-02-08T22:02:16.783Z,20.10
2023-02-08T22:04:46.682Z,18.17
2023-02-08T22:07:13.723Z,17.33
2023-02-08T22:09:41.577Z,18.77
2023-02-08T22:12:12.520Z,19.07
2023-02-08T22:14:38.825Z,19.07
2023-02-08T22:17:05.186Z,16.67
2023-02-08T22:19:31.874Z,19.77
2023-02-08T22:21:58.288Z,19.20
2023-02-08T22:24:24.582Z,23.90
2023-02-08T22:26:50.899Z,20.00
2023-02-08T22:29:17.389Z,19.83
2023-02-08T22:31:43.894Z,15.73
2023-02-08T22:34:10.367Z,15.63
2023-02-08T22:36:36.691Z,17.07
2023-02-08T22:39:03.529Z,19.90
2023-02-08T22:41:29.855Z,17.10
2023-02-08T22:43:56.166Z,17.13
2023-02-08T22:46:22.603Z,17.73
2023-02-08T22:48:49.072Z,17.73
2023-02-08T22:51:17.174Z,18.40
2023-02-08T22:53:43.753Z,14.83
2023-02-08T22:56:10.144Z,18.97
2023-02-08T22:58:36.550Z,18.80
2023-02-08T23:01:03.020Z,15.47
2023-02-08T23:03:29.319Z,16.97
2023-02-08T23:05:56.602Z,13.27
2023-02-08T23:08:23.991Z,14.80
2023-02-08T23:10:57.463Z,10.90
2023-02-08T23:13:23.782Z,14.30
2023-02-08T23:15:50.102Z,14.70
2023-02-08T23:18:16.468Z,13.00
2023-02-08T23:20:42.963Z,11.40
2023-02-08T23:23:09.701Z,12.33
2023-02-08T23:25:38.839Z,17.73
2023-02-08T23:28:05.877Z,13.47
2023-02-08T23:30:32.200Z,12.20
2023-02-08T23:32:58.630Z,13.63
2023-02-08T23:35:25.341Z,12.10
2023-02-08T23:37:51.886Z,15.03
2023-02-08T23:40:18.390Z,13.03
2023-02-08T23:42:44.774Z,10.63
2023-02-08T23:45:11.383Z,16.60
2023-02-08T23:47:38.688Z,13.00
2023-02-08T23:50:05.909Z,11.30
2023-02-08T23:52:32.999Z,12.27
2023-02-08T23:54:59.319Z,12.33
2023-02-08T23:57:25.710Z,13.00
2023-02-08T23:59:52.097Z,12.13
